world map with MAQ marked

MAQ - Airport

This information may not be accurate or current and is not valid for navigation or flight planning. No warranty of fitness for any purpose is made or implied.

flag of Thailand

Donate via PayPal

Additional information is available on the NEW Great Circle Mapper

Location
City:  Mae Sot, Tak, Thailand
ICAO / IATA:VTPM / MAQ

Details
Type:Airport (Aerodrome, Airfield)
Latitude:16°41'59"N (16.699856)
Longitude:98°32'42"E (98.545056)
Datum:WGS 1984
Elevation:690 ft (210 m)
Runways:1
Longest:4921 × 98 ft (1500 × 30 m)

Time
Timezone:UTC+7 (DST+9)
Local Time:

Weather
METAR:VTPM  041100Z 25007KT CAVOK 33/13 Q1012 NOSIG
TAF:VTPM  041100Z 0412/0512 24005KT 9999 FEW025 BECMG 0421/0423 5000 BR BECMG 0502/0504 9999 NSW

Related Locations
Nearby:
Farthest:PIO: 12040 mi / 19376 km
Pisco [Capitán FAP Renán Elías Olivera Airport], ICA, PE

Find:

   beyond  
but within

Other Information
Maps:
Sources:

  


 


Great Circle Mapper   Great Circle Mapper
Great Circle Mapper FAQ   Great Circle Mapper FAQ
  Karl's Home Page
KLS²   KLS² Home
   GC on Facebook
Airlines of the World   Airlines of the World
Donate via PayPal


Copyright © 2004-2019, Karl L. Swartz. All rights reserved.
All trademarks mentioned herein belong to their respective owners.

Please see credits for attribution and copyright information.

Karl Swartz <karl@kls2.com>
  Powered by FreeBSD
Valid HTML 4.01!
Labeled with ICRA
hCard Microformat
Geo Microformat